Time,TemperatureF,DewpointF,PressureIn,WindDirection,WindDirectionDegrees,WindSpeedMPH,WindSpeedGustMPH,Humidity,HourlyPrecipIn,Conditions,Clouds,dailyrainin,SoftwareType,DateUTC
2013-04-11 00:05:00,36.2,34.1,29.85,NE,36,7.0,7.0,92,0.07,,,0.37,Wunderground v.1.13,2013-04-11 05:05:00,
2013-04-11 00:15:00,36.0,33.9,29.85,ENE,67,6.0,6.0,92,0.08,,,0.38,Wunderground v.1.13,2013-04-11 05:15:00,
2013-04-11 00:20:00,36.0,33.9,29.86,ENE,60,5.0,12.0,92,0.08,,,0.39,Wunderground v.1.13,2013-04-11 05:20:00,
2013-04-11 00:30:00,36.0,33.9,29.86,ENE,67,5.0,5.0,92,0.08,,,0.40,Wunderground v.1.13,2013-04-11 05:30:00,
2013-04-11 00:40:00,36.0,33.9,29.87,East,88,4.0,15.0,92,0.12,,,0.42,Wunderground v.1.13,2013-04-11 05:40:00,
2013-04-11 00:45:00,36.0,33.9,29.87,East,90,4.0,15.0,92,0.11,,,0.43,Wunderground v.1.13,2013-04-11 05:45:00,
2013-04-11 00:55:00,35.9,33.8,29.88,ENE,59,6.0,15.0,92,0.08,,,0.44,Wunderground v.1.13,2013-04-11 05:55:00,
2013-04-11 01:00:00,35.9,33.8,29.88,ENE,73,6.0,6.0,92,0.11,,,0.45,Wunderground v.1.13,2013-04-11 06:00:00,
2013-04-11 01:05:00,35.9,33.8,29.86,East,92,6.0,13.0,92,0.09,,,0.46,Wunderground v.1.13,2013-04-11 06:05:00,
2013-04-11 01:15:00,35.9,33.8,29.86,NE,49,7.0,7.0,92,0.06,,,0.47,Wunderground v.1.13,2013-04-11 06:15:00,
2013-04-11 01:20:00,35.8,33.7,29.83,East,93,6.0,6.0,92,0.06,,,0.47,Wunderground v.1.13,2013-04-11 06:20:00,
2013-04-11 01:25:00,35.8,33.7,29.83,NE,45,7.0,14.0,92,0.06,,,0.48,Wunderground v.1.13,2013-04-11 06:25:00,
2013-04-11 01:35:00,35.5,33.4,29.68,East,87,12.0,12.0,92,0.05,,,0.48,Wunderground v.1.13,2013-04-11 06:35:00,
2013-04-11 01:40:00,35.2,33.1,29.68,ENE,62,14.0,14.0,92,0.04,,,0.49,Wunderground v.1.13,2013-04-11 06:40:00,
2013-04-11 01:50:00,35.3,33.2,29.67,ENE,70,12.0,12.0,92,0.04,,,0.49,Wunderground v.1.13,2013-04-11 06:50:00,
2013-04-11 02:00:00,35.5,33.4,29.67,ENE,65,7.0,16.0,92,0.00,,,0.49,Wunderground v.1.13,2013-04-11 07:00:00,
2013-04-11 02:05:00,35.5,33.4,29.77,ESE,107,6.0,24.0,92,0.00,,,0.49,Wunderground v.1.13,2013-04-11 07:05:00,
2013-04-11 02:15:00,35.5,33.1,29.77,ENE,76,6.0,24.0,91,0.00,,,0.49,Wunderground v.1.13,2013-04-11 07:15:00,
2013-04-11 02:25:00,35.8,33.2,29.76,ENE,60,5.0,5.0,90,0.00,,,0.49,Wunderground v.1.13,2013-04-11 07:25:00,
2013-04-11 02:30:00,35.8,33.2,29.76,ESE,103,4.0,24.0,90,0.00,,,0.49,Wunderground v.1.13,2013-04-11 07:30:00,
2013-04-11 02:40:00,35.8,33.2,29.76,East,93,6.0,6.0,90,0.00,,,0.49,Wunderground v.1.13,2013-04-11 07:40:00,
2013-04-11 02:45:00,35.8,32.9,29.76,East,93,6.0,32.0,89,0.00,,,0.49,Wunderground v.1.13,2013-04-11 07:45:00,
2013-04-11 02:50:00,35.9,33.0,29.77,ENE,76,7.0,7.0,89,0.00,,,0.49,Wunderground v.1.13,2013-04-11 07:50:00,
2013-04-11 03:00:00,35.8,32.9,29.77,ENE,77,4.0,32.0,89,0.00,,,0.49,Wunderground v.1.13,2013-04-11 08:00:00,
2013-04-11 03:05:00,35.6,32.7,29.75,ENE,69,4.0,15.0,89,0.00,,,0.49,Wunderground v.1.13,2013-04-11 08:05:00,
2013-04-11 03:15:00,35.6,32.7,29.75,ENE,77,5.0,15.0,89,0.00,,,0.49,Wunderground v.1.13,2013-04-11 08:15:00,
2013-04-11 03:25:00,35.5,32.3,29.76,East,91,7.0,7.0,88,0.00,,,0.49,Wunderground v.1.13,2013-04-11 08:25:00,
2013-04-11 03:35:00,35.5,32.3,29.76,ENE,70,5.0,14.0,88,0.00,,,0.49,Wunderground v.1.13,2013-04-11 08:35:00,
2013-04-11 03:45:00,35.5,32.3,29.76,ENE,71,6.0,14.0,88,0.00,,,0.49,Wunderground v.1.13,2013-04-11 08:45:00,
2013-04-11 03:50:00,35.3,32.1,29.77,ENE,74,6.0,14.0,88,0.00,,,0.49,Wunderground v.1.13,2013-04-11 08:50:00,
2013-04-11 04:00:00,35.3,32.1,29.77,East,86,6.0,14.0,88,0.00,,,0.49,Wunderground v.1.13,2013-04-11 09:00:00,
2013-04-11 04:05:00,35.3,32.1,29.75,East,82,6.0,6.0,88,0.00,,,0.49,Wunderground v.1.13,2013-04-11 09:05:00,
2013-04-11 04:15:00,35.2,32.3,29.75,East,94,6.0,6.0,89,0.00,,,0.49,Wunderground v.1.13,2013-04-11 09:15:00,
2013-04-11 04:25:00,35.2,32.3,29.74,ENE,75,7.0,16.0,89,0.00,,,0.49,Wunderground v.1.13,2013-04-11 09:25:00,
2013-04-11 04:30:00,35.2,32.0,29.74,ENE,76,7.0,16.0,88,0.00,,,0.49,Wunderground v.1.13,2013-04-11 09:30:00,
2013-04-11 04:40:00,35.2,32.3,29.73,ENE,77,8.0,16.0,89,0.00,,,0.49,Wunderground v.1.13,2013-04-11 09:40:00,
2013-04-11 04:45:00,35.2,32.0,29.73,ENE,78,8.0,8.0,88,0.00,,,0.49,Wunderground v.1.13,2013-04-11 09:45:00,
2013-04-11 04:55:00,35.2,32.0,29.72,ENE,77,7.0,7.0,88,0.00,,,0.49,Wunderground v.1.13,2013-04-11 09:55:00,
2013-04-11 05:05:00,35.0,31.8,29.70,ENE,69,7.0,21.0,88,0.00,,,0.49,Wunderground v.1.13,2013-04-11 10:05:00,
2013-04-11 05:15:00,35.0,32.1,29.70,East,82,6.0,6.0,89,0.00,,,0.49,Wunderground v.1.13,2013-04-11 10:15:00,
2013-04-11 05:25:00,35.0,32.1,29.71,East,85,6.0,21.0,89,0.00,,,0.49,Wunderground v.1.13,2013-04-11 10:25:00,
2013-04-11 05:30:00,35.2,32.3,29.71,East,87,6.0,21.0,89,0.00,,,0.49,Wunderground v.1.13,2013-04-11 10:30:00,
2013-04-11 05:40:00,35.2,32.3,29.72,ENE,77,6.0,16.0,89,0.00,,,0.49,Wunderground v.1.13,2013-04-11 10:40:00,
2013-04-11 05:45:00,35.2,32.3,29.72,ENE,66,5.0,16.0,89,0.00,,,0.49,Wunderground v.1.13,2013-04-11 10:45:00,
2013-04-11 05:55:00,35.2,32.6,29.70,ENE,66,6.0,16.0,90,0.00,,,0.49,Wunderground v.1.13,2013-04-11 10:55:00,
2013-04-11 06:05:00,35.0,32.4,29.70,East,84,8.0,8.0,90,0.00,,,0.49,Wunderground v.1.13,2013-04-11 11:05:00,
2013-04-11 06:15:00,35.0,32.6,29.70,ENE,65,5.0,14.0,91,0.00,,,0.00,Wunderground v.1.13,2013-04-11 11:15:00,
2013-04-11 06:25:00,34.9,32.5,29.71,ENE,70,7.0,7.0,91,0.00,,,0.00,Wunderground v.1.13,2013-04-11 11:25:00,
2013-04-11 06:35:00,34.9,32.5,29.69,ENE,61,6.0,6.0,91,0.00,,,0.00,Wunderground v.1.13,2013-04-11 11:35:00,
2013-04-11 06:40:00,34.9,32.8,29.69,ENE,62,7.0,7.0,92,0.00,,,0.00,Wunderground v.1.13,2013-04-11 11:40:00,
2013-04-11 06:45:00,34.9,32.8,29.69,ENE,63,6.0,13.0,92,0.00,,,0.00,Wunderground v.1.13,2013-04-11 11:45:00,
2013-04-11 06:55:00,34.9,32.8,29.69,ENE,77,6.0,13.0,92,0.00,,,0.00,Wunderground v.1.13,2013-04-11 11:55:00,
2013-04-11 07:00:00,34.9,32.8,29.69,East,86,6.0,13.0,92,0.00,,,0.01,Wunderground v.1.13,2013-04-11 12:00:00,
2013-04-11 07:05:00,34.9,32.8,29.68,ENE,74,7.0,16.0,92,0.00,,,0.01,Wunderground v.1.13,2013-04-11 12:05:00,
2013-04-11 07:15:00,34.9,32.8,29.68,ENE,74,7.0,16.0,92,0.00,,,0.01,Wunderground v.1.13,2013-04-11 12:15:00,
2013-04-11 07:25:00,34.9,33.1,29.69,East,84,7.0,7.0,93,0.00,,,0.01,Wunderground v.1.13,2013-04-11 12:25:00,
2013-04-11 07:35:00,35.0,33.2,29.69,ESE,116,7.0,7.0,93,0.00,,,0.01,Wunderground v.1.13,2013-04-11 12:35:00,
2013-04-11 07:45:00,35.0,33.2,29.69,East,85,7.0,7.0,93,0.00,,,0.02,Wunderground v.1.13,2013-04-11 12:45:00,
2013-04-11 07:50:00,35.2,33.4,29.67,ENE,64,7.0,7.0,93,0.00,,,0.02,Wunderground v.1.13,2013-04-11 12:50:00,
2013-04-11 07:55:00,35.2,33.4,29.67,ENE,74,7.0,14.0,93,0.00,,,0.02,Wunderground v.1.13,2013-04-11 12:55:00,
2013-04-11 08:00:00,35.3,33.5,29.67,ENE,73,8.0,8.0,93,0.00,,,0.02,Wunderground v.1.13,2013-04-11 13:00:00,
2013-04-11 08:05:00,35.3,33.5,29.69,East,81,7.0,7.0,93,0.00,,,0.02,Wunderground v.1.13,2013-04-11 13:05:00,
2013-04-11 08:15:00,35.5,33.7,29.69,ESE,114,7.0,18.0,93,0.00,,,0.03,Wunderground v.1.13,2013-04-11 13:15:00,
2013-04-11 08:25:00,35.5,33.7,29.69,East,94,7.0,7.0,93,0.05,,,0.04,Wunderground v.1.13,2013-04-11 13:25:00,
2013-04-11 08:30:00,35.6,33.8,29.69,East,80,7.0,18.0,93,0.05,,,0.04,Wunderground v.1.13,2013-04-11 13:30:00,
2013-04-11 08:40:00,35.6,33.8,29.68,East,94,8.0,18.0,93,0.04,,,0.05,Wunderground v.1.13,2013-04-11 13:40:00,
2013-04-11 08:45:00,35.6,33.8,29.68,ENE,78,7.0,18.0,93,0.04,,,0.05,Wunderground v.1.13,2013-04-11 13:45:00,
2013-04-11 08:50:00,35.6,33.8,29.67,ENE,76,6.0,18.0,93,0.04,,,0.05,Wunderground v.1.13,2013-04-11 13:50:00,
2013-04-11 08:55:00,35.6,33.8,29.67,ENE,74,7.0,7.0,93,0.00,,,0.05,Wunderground v.1.13,2013-04-11 13:55:00,
2013-04-11 09:00:00,35.6,33.8,29.67,NE,52,7.0,18.0,93,0.00,,,0.05,Wunderground v.1.13,2013-04-11 14:00:00,
2013-04-11 09:05:00,35.8,34.0,29.66,East,86,7.0,7.0,93,0.00,,,0.06,Wunderground v.1.13,2013-04-11 14:05:00,
2013-04-11 09:15:00,35.8,34.0,29.66,East,97,7.0,16.0,93,0.00,,,0.06,Wunderground v.1.13,2013-04-11 14:15:00,
2013-04-11 09:20:00,35.8,34.0,29.67,ESE,111,7.0,7.0,93,0.05,,,0.07,Wunderground v.1.13,2013-04-11 14:20:00,
2013-04-11 09:30:00,35.9,34.1,29.67,East,84,8.0,8.0,93,0.04,,,0.07,Wunderground v.1.13,2013-04-11 14:30:00,
2013-04-11 09:35:00,35.9,34.1,29.65,ESE,107,9.0,9.0,93,0.00,,,0.07,Wunderground v.1.13,2013-04-11 14:35:00,
2013-04-11 09:40:00,35.9,34.1,29.65,East,82,8.0,18.0,93,0.00,,,0.07,Wunderground v.1.13,2013-04-11 14:40:00,
2013-04-11 09:50:00,35.9,34.1,29.65,East,80,7.0,18.0,93,0.00,,,0.07,Wunderground v.1.13,2013-04-11 14:50:00,
2013-04-11 09:55:00,35.9,34.1,29.65,East,92,7.0,18.0,93,0.00,,,0.08,Wunderground v.1.13,2013-04-11 14:55:00,
2013-04-11 10:05:00,36.0,34.2,29.64,East,88,8.0,19.0,93,0.00,,,0.08,Wunderground v.1.13,2013-04-11 15:05:00,
2013-04-11 10:15:00,36.0,34.2,29.64,East,84,6.0,19.0,93,0.00,,,0.08,Wunderground v.1.13,2013-04-11 15:15:00,
2013-04-11 10:25:00,36.0,34.2,29.64,East,87,8.0,8.0,93,0.00,,,0.09,Wunderground v.1.13,2013-04-11 15:25:00,
2013-04-11 10:30:00,36.2,34.4,29.64,East,83,8.0,8.0,93,0.00,,,0.09,Wunderground v.1.13,2013-04-11 15:30:00,
2013-04-11 10:40:00,36.3,34.5,29.64,East,92,6.0,22.0,93,0.00,,,0.10,Wunderground v.1.13,2013-04-11 15:40:00,
2013-04-11 10:50:00,36.3,34.5,29.64,NE,39,7.0,7.0,93,0.00,,,0.10,Wunderground v.1.13,2013-04-11 15:50:00,
2013-04-11 10:55:00,36.5,34.7,29.64,East,82,6.0,6.0,93,0.00,,,0.10,Wunderground v.1.13,2013-04-11 15:55:00,
2013-04-11 11:00:00,36.6,34.8,29.64,ENE,76,5.0,22.0,93,0.00,,,0.10,Wunderground v.1.13,2013-04-11 16:00:00,
2013-04-11 11:05:00,36.6,34.8,29.66,East,82,5.0,15.0,93,0.00,,,0.10,Wunderground v.1.13,2013-04-11 16:05:00,
2013-04-11 11:15:00,36.6,34.8,29.66,ENE,66,7.0,7.0,93,0.00,,,0.10,Wunderground v.1.13,2013-04-11 16:15:00,
2013-04-11 11:20:00,36.9,35.1,29.67,East,80,7.0,7.0,93,0.00,,,0.10,Wunderground v.1.13,2013-04-11 16:20:00,
2013-04-11 11:30:00,37.0,35.2,29.67,ENE,78,6.0,6.0,93,0.00,,,0.10,Wunderground v.1.13,2013-04-11 16:30:00,
2013-04-11 11:40:00,37.0,35.2,29.66,ESE,111,6.0,18.0,93,0.00,,,0.11,Wunderground v.1.13,2013-04-11 16:40:00,
2013-04-11 11:45:00,37.0,35.4,29.66,East,85,7.0,7.0,94,0.00,,,0.11,Wunderground v.1.13,2013-04-11 16:45:00,
2013-04-11 11:55:00,37.0,35.4,29.66,East,90,6.0,18.0,94,0.00,,,0.11,Wunderground v.1.13,2013-04-11 16:55:00,
2013-04-11 12:00:00,37.0,35.4,29.66,East,84,6.0,18.0,94,0.00,,,0.11,Wunderground v.1.13,2013-04-11 17:00:00,
2013-04-11 12:05:00,37.2,35.6,29.64,ENE,78,6.0,6.0,94,0.00,,,0.11,Wunderground v.1.13,2013-04-11 17:05:00,
2013-04-11 12:15:00,37.3,35.7,29.64,ESE,116,6.0,14.0,94,0.00,,,0.11,Wunderground v.1.13,2013-04-11 17:15:00,
2013-04-11 12:20:00,37.2,35.6,29.64,East,81,6.0,14.0,94,0.00,,,0.11,Wunderground v.1.13,2013-04-11 17:20:00,
2013-04-11 12:25:00,37.2,35.6,29.64,ENE,76,7.0,7.0,94,0.00,,,0.11,Wunderground v.1.13,2013-04-11 17:25:00,
2013-04-11 12:35:00,37.2,35.6,29.62,ENE,57,7.0,15.0,94,0.00,,,0.11,Wunderground v.1.13,2013-04-11 17:35:00,
2013-04-11 12:45:00,37.2,35.6,29.62,East,90,7.0,7.0,94,0.00,,,0.11,Wunderground v.1.13,2013-04-11 17:45:00,
2013-04-11 12:55:00,37.2,35.4,29.62,ENE,71,8.0,8.0,93,0.00,,,0.11,Wunderground v.1.13,2013-04-11 17:55:00,
2013-04-11 13:00:00,37.2,35.6,29.62,East,82,8.0,15.0,94,0.00,,,0.11,Wunderground v.1.13,2013-04-11 18:00:00,
2013-04-11 13:05:00,37.2,35.6,29.62,East,86,7.0,15.0,94,0.00,,,0.11,Wunderground v.1.13,2013-04-11 18:05:00,
2013-04-11 13:15:00,37.2,35.4,29.62,East,88,8.0,8.0,93,0.00,,,0.11,Wunderground v.1.13,2013-04-11 18:15:00,
2013-04-11 13:20:00,37.3,35.5,29.61,ESE,123,7.0,16.0,93,0.00,,,0.11,Wunderground v.1.13,2013-04-11 18:20:00,
2013-04-11 13:25:00,37.3,35.5,29.61,East,79,7.0,15.0,93,0.00,,,0.11,Wunderground v.1.13,2013-04-11 18:25:00,
2013-04-11 13:30:00,37.3,35.5,29.61,ENE,71,6.0,15.0,93,0.00,,,0.11,Wunderground v.1.13,2013-04-11 18:30:00,
2013-04-11 13:40:00,37.3,35.2,29.61,East,90,7.0,7.0,92,0.00,,,0.11,Wunderground v.1.13,2013-04-11 18:40:00,
2013-04-11 13:45:00,37.3,35.2,29.61,East,86,6.0,18.0,92,0.00,,,0.11,Wunderground v.1.13,2013-04-11 18:45:00,
2013-04-11 13:55:00,37.6,35.2,29.61,East,86,6.0,18.0,91,0.00,,,0.11,Wunderground v.1.13,2013-04-11 18:55:00,
2013-04-11 14:00:00,37.6,35.2,29.61,East,90,6.0,18.0,91,0.00,,,0.11,Wunderground v.1.13,2013-04-11 19:00:00,
2013-04-11 14:05:00,37.5,35.1,29.60,SE,130,7.0,22.0,91,0.00,,,0.11,Wunderground v.1.13,2013-04-11 19:05:00,
2013-04-11 14:15:00,37.6,35.2,29.60,ESE,102,7.0,22.0,91,0.00,,,0.11,Wunderground v.1.13,2013-04-11 19:15:00,
2013-04-11 14:20:00,37.6,35.2,29.61,East,86,6.0,6.0,91,0.00,,,0.11,Wunderground v.1.13,2013-04-11 19:20:00,
2013-04-11 14:30:00,37.5,35.1,29.61,ENE,73,6.0,6.0,91,0.00,,,0.11,Wunderground v.1.13,2013-04-11 19:30:00,
2013-04-11 14:35:00,37.5,35.1,29.61,East,90,5.0,15.0,91,0.00,,,0.11,Wunderground v.1.13,2013-04-11 19:35:00,
2013-04-11 14:45:00,37.5,35.4,29.61,East,90,5.0,15.0,92,0.00,,,0.11,Wunderground v.1.13,2013-04-11 19:45:00,
2013-04-11 14:50:00,37.3,35.2,29.61,East,88,6.0,15.0,92,0.00,,,0.11,Wunderground v.1.13,2013-04-11 19:50:00,
2013-04-11 15:00:00,37.3,35.2,29.61,East,96,6.0,6.0,92,0.00,,,0.11,Wunderground v.1.13,2013-04-11 20:00:00,
2013-04-11 15:05:00,37.5,35.4,29.61,East,96,6.0,15.0,92,0.00,,,0.11,Wunderground v.1.13,2013-04-11 20:05:00,
2013-04-11 15:15:00,37.3,35.5,29.61,East,80,6.0,6.0,93,0.00,,,0.11,Wunderground v.1.13,2013-04-11 20:15:00,
2013-04-11 15:20:00,37.5,35.7,29.59,ENE,78,5.0,15.0,93,0.00,,,0.11,Wunderground v.1.13,2013-04-11 20:20:00,
2013-04-11 15:25:00,37.3,35.5,29.59,ENE,78,5.0,5.0,93,0.00,,,0.11,Wunderground v.1.13,2013-04-11 20:25:00,
2013-04-11 15:30:00,37.5,35.7,29.59,ENE,75,6.0,15.0,93,0.00,,,0.12,Wunderground v.1.13,2013-04-11 20:30:00,
2013-04-11 15:35:00,37.5,35.7,29.59,ENE,76,5.0,15.0,93,0.00,,,0.12,Wunderground v.1.13,2013-04-11 20:35:00,
2013-04-11 15:45:00,37.5,35.7,29.59,East,90,5.0,5.0,93,0.00,,,0.12,Wunderground v.1.13,2013-04-11 20:45:00,
2013-04-11 15:55:00,37.3,35.5,29.60,East,96,4.0,15.0,93,0.00,,,0.12,Wunderground v.1.13,2013-04-11 20:55:00,
2013-04-11 16:05:00,37.2,35.4,29.59,ENE,63,6.0,6.0,93,0.00,,,0.12,Wunderground v.1.13,2013-04-11 21:05:00,
2013-04-11 16:15:00,37.0,35.4,29.59,East,80,6.0,11.0,94,0.00,,,0.12,Wunderground v.1.13,2013-04-11 21:15:00,
2013-04-11 16:25:00,37.0,35.2,29.59,ENE,64,6.0,11.0,93,0.00,,,0.12,Wunderground v.1.13,2013-04-11 21:25:00,
2013-04-11 16:35:00,36.9,35.1,29.59,ENE,59,5.0,11.0,93,0.00,,,0.12,Wunderground v.1.13,2013-04-11 21:35:00,
2013-04-11 16:45:00,36.9,35.1,29.59,East,90,6.0,6.0,93,0.00,,,0.12,Wunderground v.1.13,2013-04-11 21:45:00,
2013-04-11 16:55:00,36.8,35.0,29.58,ENE,78,6.0,11.0,93,0.00,,,0.12,Wunderground v.1.13,2013-04-11 21:55:00,
2013-04-11 17:00:00,36.8,35.0,29.58,East,80,6.0,6.0,93,0.00,,,0.12,Wunderground v.1.13,2013-04-11 22:00:00,
2013-04-11 17:05:00,36.6,34.8,29.58,ENE,63,6.0,12.0,93,0.00,,,0.12,Wunderground v.1.13,2013-04-11 22:05:00,
2013-04-11 17:15:00,36.8,35.0,29.58,NE,44,5.0,12.0,93,0.00,,,0.12,Wunderground v.1.13,2013-04-11 22:15:00,
2013-04-11 17:20:00,36.6,34.8,29.57,ENE,65,5.0,5.0,93,0.00,,,0.12,Wunderground v.1.13,2013-04-11 22:20:00,
2013-04-11 17:30:00,36.6,34.8,29.57,ENE,76,5.0,12.0,93,0.00,,,0.12,Wunderground v.1.13,2013-04-11 22:30:00,
2013-04-11 17:35:00,36.6,34.8,29.58,ENE,71,4.0,11.0,93,0.00,,,0.12,Wunderground v.1.13,2013-04-11 22:35:00,
2013-04-11 17:40:00,36.6,34.8,29.58,ENE,65,4.0,11.0,93,0.00,,,0.12,Wunderground v.1.13,2013-04-11 22:40:00,
2013-04-11 17:50:00,36.6,34.8,29.60,ENE,74,4.0,11.0,93,0.00,,,0.12,Wunderground v.1.13,2013-04-11 22:50:00,
2013-04-11 18:00:00,36.6,34.8,29.60,ENE,72,4.0,11.0,93,0.00,,,0.12,Wunderground v.1.13,2013-04-11 23:00:00,
2013-04-11 18:05:00,36.6,34.8,29.61,NE,43,4.0,12.0,93,0.00,,,0.12,Wunderground v.1.13,2013-04-11 23:05:00,
2013-04-11 18:15:00,36.5,34.7,29.61,ENE,63,4.0,12.0,93,0.00,,,0.12,Wunderground v.1.13,2013-04-11 23:15:00,
2013-04-11 18:25:00,36.5,34.7,29.60,ENE,64,5.0,12.0,93,0.00,,,0.12,Wunderground v.1.13,2013-04-11 23:25:00,
2013-04-11 18:30:00,36.5,34.7,29.60,NE,55,4.0,12.0,93,0.00,,,0.12,Wunderground v.1.13,2013-04-11 23:30:00,
2013-04-11 18:35:00,36.3,34.5,29.59,ENE,58,4.0,13.0,93,0.00,,,0.12,Wunderground v.1.13,2013-04-11 23:35:00,
2013-04-11 18:40:00,36.2,34.4,29.59,East,86,6.0,13.0,93,0.00,,,0.12,Wunderground v.1.13,2013-04-11 23:40:00,
2013-04-11 18:50:00,35.9,34.1,29.56,NE,48,6.0,6.0,93,0.00,,,0.12,Wunderground v.1.13,2013-04-11 23:50:00,
2013-04-11 19:00:00,35.8,34.2,29.56,ENE,71,7.0,7.0,94,0.00,,,0.12,Wunderground v.1.13,2013-04-12 00:00:00,
2013-04-11 19:05:00,35.8,34.2,29.53,NE,53,6.0,6.0,94,0.00,,,0.12,Wunderground v.1.13,2013-04-12 00:05:00,
2013-04-11 19:15:00,35.6,34.0,29.53,ENE,71,6.0,11.0,94,0.00,,,0.12,Wunderground v.1.13,2013-04-12 00:15:00,
2013-04-11 19:25:00,35.6,34.0,29.54,East,80,5.0,5.0,94,0.00,,,0.12,Wunderground v.1.13,2013-04-12 00:25:00,
2013-04-11 19:30:00,35.5,33.9,29.54,East,87,5.0,11.0,94,0.00,,,0.12,Wunderground v.1.13,2013-04-12 00:30:00,
2013-04-11 19:35:00,35.5,33.9,29.54,ENE,74,6.0,6.0,94,0.00,,,0.12,Wunderground v.1.13,2013-04-12 00:35:00,
2013-04-11 19:40:00,35.5,33.9,29.54,ENE,65,6.0,6.0,94,0.00,,,0.12,Wunderground v.1.13,2013-04-12 00:40:00,
2013-04-11 19:50:00,35.5,33.9,29.55,ENE,75,6.0,12.0,94,0.00,,,0.12,Wunderground v.1.13,2013-04-12 00:50:00,
2013-04-11 20:00:00,35.5,33.7,29.55,ESE,103,5.0,5.0,93,0.00,,,0.12,Wunderground v.1.13,2013-04-12 01:00:00,
2013-04-11 20:05:00,35.5,33.7,29.57,ENE,59,4.0,13.0,93,0.00,,,0.12,Wunderground v.1.13,2013-04-12 01:05:00,
2013-04-11 20:15:00,35.5,33.7,29.57,East,84,3.0,3.0,93,0.00,,,0.12,Wunderground v.1.13,2013-04-12 01:15:00,
2013-04-11 20:20:00,35.5,33.7,29.56,East,80,3.0,13.0,93,0.00,,,0.12,Wunderground v.1.13,2013-04-12 01:20:00,
2013-04-11 20:30:00,35.3,33.5,29.56,ENE,57,3.0,13.0,93,0.00,,,0.12,Wunderground v.1.13,2013-04-12 01:30:00,
2013-04-11 20:40:00,35.3,33.5,29.55,ENE,59,3.0,3.0,93,0.00,,,0.12,Wunderground v.1.13,2013-04-12 01:40:00,
2013-04-11 20:45:00,35.3,33.5,29.55,ENE,67,4.0,11.0,93,0.00,,,0.12,Wunderground v.1.13,2013-04-12 01:45:00,
2013-04-11 20:55:00,35.3,33.5,29.55,ENE,74,4.0,11.0,93,0.00,,,0.12,Wunderground v.1.13,2013-04-12 01:55:00,
2013-04-11 21:00:00,35.2,33.6,29.55,ENE,75,5.0,11.0,94,0.00,,,0.12,Wunderground v.1.13,2013-04-12 02:00:00,
2013-04-11 21:05:00,35.2,33.6,29.53,ENE,65,6.0,6.0,94,0.00,,,0.12,Wunderground v.1.13,2013-04-12 02:05:00,
2013-04-11 21:15:00,35.2,33.6,29.53,ENE,62,6.0,8.0,94,0.00,,,0.12,Wunderground v.1.13,2013-04-12 02:15:00,
2013-04-11 21:20:00,35.0,33.4,29.53,ENE,74,6.0,8.0,94,0.00,,,0.12,Wunderground v.1.13,2013-04-12 02:20:00,
2013-04-11 21:30:00,35.0,33.4,29.53,NE,53,5.0,8.0,94,0.00,,,0.12,Wunderground v.1.13,2013-04-12 02:30:00,
2013-04-11 21:35:00,35.0,33.4,29.53,East,81,5.0,5.0,94,0.00,,,0.12,Wunderground v.1.13,2013-04-12 02:35:00,
2013-04-11 21:45:00,35.0,33.4,29.53,ENE,78,6.0,9.0,94,0.00,,,0.12,Wunderground v.1.13,2013-04-12 02:45:00,
2013-04-11 21:50:00,35.0,33.4,29.53,East,90,6.0,9.0,94,0.00,,,0.12,Wunderground v.1.13,2013-04-12 02:50:00,
2013-04-11 22:00:00,35.2,33.6,29.53,NE,54,4.0,9.0,94,0.00,,,0.12,Wunderground v.1.13,2013-04-12 03:00:00,
2013-04-11 22:05:00,35.2,33.6,29.53,ENE,78,4.0,18.0,94,0.00,,,0.12,Wunderground v.1.13,2013-04-12 03:05:00,
2013-04-11 22:15:00,35.2,33.6,29.53,ENE,78,5.0,18.0,94,0.00,,,0.12,Wunderground v.1.13,2013-04-12 03:15:00,
2013-04-11 22:25:00,35.2,33.6,29.53,ENE,70,5.0,5.0,94,0.00,,,0.12,Wunderground v.1.13,2013-04-12 03:25:00,
2013-04-11 22:30:00,35.2,33.6,29.53,NE,55,4.0,18.0,94,0.00,,,0.12,Wunderground v.1.13,2013-04-12 03:30:00,
2013-04-11 22:40:00,35.3,33.7,29.53,ENE,71,4.0,12.0,94,0.00,,,0.12,Wunderground v.1.13,2013-04-12 03:40:00,
2013-04-11 22:45:00,35.3,33.7,29.53,ENE,68,4.0,4.0,94,0.00,,,0.12,Wunderground v.1.13,2013-04-12 03:45:00,
2013-04-11 22:55:00,35.3,33.7,29.53,East,94,4.0,4.0,94,0.00,,,0.12,Wunderground v.1.13,2013-04-12 03:55:00,
2013-04-11 23:05:00,35.3,33.7,29.52,ENE,63,4.0,9.0,94,0.00,,,0.12,Wunderground v.1.13,2013-04-12 04:05:00,
2013-04-11 23:10:00,35.3,33.7,29.52,NE,45,5.0,5.0,94,0.00,,,0.12,Wunderground v.1.13,2013-04-12 04:10:00,
2013-04-11 23:15:00,35.3,33.7,29.52,ENE,74,5.0,5.0,94,0.00,,,0.13,Wunderground v.1.13,2013-04-12 04:15:00,
2013-04-11 23:25:00,35.3,33.7,29.53,East,85,4.0,9.0,94,0.00,,,0.13,Wunderground v.1.13,2013-04-12 04:25:00,
2013-04-11 23:30:00,35.3,33.7,29.53,ENE,61,3.0,9.0,94,0.00,,,0.13,Wunderground v.1.13,2013-04-12 04:30:00,
2013-04-11 23:40:00,35.3,33.7,29.52,East,86,3.0,10.0,94,0.00,,,0.13,Wunderground v.1.13,2013-04-12 04:40:00,
2013-04-11 23:45:00,35.3,33.7,29.52,ENE,62,2.0,10.0,94,0.00,,,0.13,Wunderground v.1.13,2013-04-12 04:45:00,
2013-04-11 23:55:00,35.3,33.7,29.52,ENE,78,2.0,10.0,94,0.00,,,0.13,Wunderground v.1.13,2013-04-12 04:55:00,